Pura Vida — J8Y4106 — position and weather

sailwx.info

Track history (hours):
 
Tides and Currents Weather Stations Pressure Air Temp Water Temp Dewpoint Dewpoint Depression Visibility Wind Speed Wind Dir Waves Ship Positions

Pura Vida

Last reported at 2018-Feb-13 23:13 UTC. Time now 2018-Feb-18 01:49 UTC.
Position N 25°57' W 080°08'.

Length 24 m.

Type: Pleasure craft. MMSI: 376502000.

Date/timePositionNaut miles runAvg speedWind from/ knotsBaromVisibWave heightAir tempDewpointWater temp
2018-Feb-13 23:13N 25°57' W 080°08'0 1.9
2018-Feb-13 23:00N 25°57' W 080°08'4 7.1
2018-Feb-13 22:30N 26°00' W 080°07'3 5.1
2018-Feb-13 21:58N 26°03' W 080°07'0 0.3
2018-Feb-13 21:29N 26°03' W 080°07'4 6.4
2018-Feb-13 20:54N 26°07' W 080°07'1 2.2
2018-Feb-13 20:30N 26°06' W 080°07'3 6.5
2018-Feb-13 20:00N 26°03' W 080°07'2 3.2
2018-Feb-13 19:28N 26°01' W 080°07'3 5.5
2018-Feb-13 18:58N 25°59' W 080°07'3 6.3
2018-Feb-13 18:27N 25°55' W 080°08'0 0.2
2018-Feb-13 17:57N 25°56' W 080°08'1 2.1
2018-Feb-13 17:22N 25°57' W 080°08'0 0.0
2018-Feb-13 16:52N 25°57' W 080°08'  
Track history (hours):
 
Tides and Currents Weather Stations Pressure Air Temp Water Temp Dewpoint Dewpoint Depression Visibility Wind Speed Wind Dir Waves Ship Positions

Pura Vida

Last reported at 2018-Feb-13 23:13 UTC. Time now 2018-Feb-18 01:49 UTC.
Position N 25°57' W 080°08'.

Length 24 m.

Type: Pleasure craft. MMSI: 376502000.

Date/timePositionNaut miles runAvg speedWind from/ knotsBaromVisibWave heightAir tempDewpointWater temp
2018-Feb-13 23:13N 25°57' W 080°08'0 1.9
2018-Feb-13 23:00N 25°57' W 080°08'4 7.1
2018-Feb-13 22:30N 26°00' W 080°07'3 5.1
2018-Feb-13 21:58N 26°03' W 080°07'0 0.3
2018-Feb-13 21:29N 26°03' W 080°07'4 6.4
2018-Feb-13 20:54N 26°07' W 080°07'1 2.2
2018-Feb-13 20:30N 26°06' W 080°07'3 6.5
2018-Feb-13 20:00N 26°03' W 080°07'2 3.2
2018-Feb-13 19:28N 26°01' W 080°07'3 5.5
2018-Feb-13 18:58N 25°59' W 080°07'3 6.3
2018-Feb-13 18:27N 25°55' W 080°08'0 0.2
2018-Feb-13 17:57N 25°56' W 080°08'1 2.1
2018-Feb-13 17:22N 25°57' W 080°08'0 0.0
2018-Feb-13 16:52N 25°57' W 080°08'  

Dump ship's entire track history